Time;durP1;ratioP1;P1;durP2;ratioP2;P2;SDS_P1;SDS_P2;PMS_P1;PMS_P2;Temp;Humidity;BMP_temperature;BMP_pressure;BME280_temperature;BME280_humidity;BME280_pressure;Samples;Min_cycle;Max_cycle;Signal;HPM_P1;HPM_P2
2024/01/15 00:01:17;;;;;;;;;;;3.10;99.90;;;;;;5024988;28;19928;-87
2024/01/15 00:03:42;;;;;;;;;;;2.00;99.90;;;;;;5013983;28;19925;-86
2024/01/15 00:06:08;;;;;;;;;;;1.70;99.90;;;;;;5024313;28;19963;-87
2024/01/15 00:08:34;;;;;;;;;;;1.40;99.90;;;;;;5005442;28;19928;-87
2024/01/15 00:10:59;;;;;;;;;;;1.40;99.90;;;;;;5018003;28;19937;-87
2024/01/15 00:13:25;;;;;;;;;;;1.50;99.90;;;;;;5030682;28;19929;-87
2024/01/15 00:15:50;;;;;;;;;;;3.20;99.90;;;;;;5019161;28;19921;-86
2024/01/15 00:18:16;;;;;;;;;;;2.90;99.90;;;;;;5018700;28;19927;-86
2024/01/15 00:20:42;;;;;;;;;;;2.10;99.90;;;;;;5026008;28;19929;-87
2024/01/15 00:23:07;;;;;;;;;;;1.60;99.90;;;;;;5016383;28;19921;-86
2024/01/15 00:25:33;;;;;;;;;;;3.50;99.90;;;;;;5030221;28;19913;-87
2024/01/15 00:27:58;;;;;;;;;;;3.20;99.90;;;;;;5011928;28;19927;-87
2024/01/15 00:30:24;;;;;;;;;;;3.20;99.90;;;;;;5006918;28;19921;-86
2024/01/15 00:32:50;;;;;;;;;;;2.70;99.90;;;;;;5024046;28;20008;-88
2024/01/15 00:35:15;;;;;;;;;;;2.30;99.90;;;;;;5004234;28;19921;-87
2024/01/15 00:37:41;;;;;;;;;;;1.80;99.90;;;;;;5005522;28;20395;-87
2024/01/15 00:40:07;;;;;;;;;;;3.60;99.90;;;;;;5033410;28;20397;-87
2024/01/15 00:42:34;;;;;;;;;;;1.80;99.90;;;;;;5001641;28;20023;-87
2024/01/15 00:44:59;;;;;;;;;;;3.40;99.90;;;;;;5032677;28;19929;-87
2024/01/15 00:47:25;;;;;;;;;;;2.90;99.90;;;;;;5015106;28;19925;-86
2024/01/15 00:49:51;;;;;;;;;;;3.40;99.90;;;;;;5013409;28;19922;-87
2024/01/15 00:52:16;;;;;;;;;;;2.80;99.90;;;;;;5000630;28;19928;-87
2024/01/15 00:54:42;;;;;;;;;;;1.60;99.90;;;;;;5000966;28;20335;-87
2024/01/15 00:57:08;;;;;;;;;;;2.50;99.90;;;;;;5031141;28;20349;-86
2024/01/15 00:59:33;;;;;;;;;;;2.80;99.90;;;;;;5017270;28;20392;-87
2024/01/15 01:01:59;;;;;;;;;;;2.50;99.90;;;;;;5018041;28;19921;-87
2024/01/15 01:04:24;;;;;;;;;;;2.10;99.90;;;;;;5018170;28;19940;-88
2024/01/15 01:06:50;;;;;;;;;;;1.60;99.90;;;;;;5018478;28;20402;-86
2024/01/15 01:09:16;;;;;;;;;;;2.50;99.90;;;;;;5014052;28;19922;-87
2024/01/15 01:11:41;;;;;;;;;;;1.60;99.90;;;;;;5012321;28;19968;-87
2024/01/15 01:14:07;;;;;;;;;;;3.50;99.90;;;;;;5009424;28;19925;-87
2024/01/15 01:16:38;;;;;;;;;;;1.60;99.90;;;;;;5035137;28;20007;-88
2024/01/15 01:19:07;;;;;;;;;;;1.90;99.90;;;;;;5007294;28;20416;-88
2024/01/15 01:21:33;;;;;;;;;;;1.60;99.90;;;;;;5032432;28;20380;-87
2024/01/15 01:23:58;;;;;;;;;;;3.00;99.90;;;;;;4999421;28;19925;-87
2024/01/15 01:26:24;;;;;;;;;;;3.10;99.90;;;;;;5013383;28;19928;-87
2024/01/15 01:28:50;;;;;;;;;;;2.20;99.90;;;;;;5013984;28;19974;-88
2024/01/15 01:31:16;;;;;;;;;;;2.40;99.90;;;;;;5000906;28;19928;-88
2024/01/15 01:33:42;;;;;;;;;;;3.00;99.90;;;;;;5016759;28;19921;-88
2024/01/15 01:36:11;;;;;;;;;;;1.90;99.90;;;;;;5017883;28;19943;-87
2024/01/15 01:38:36;;;;;;;;;;;1.90;99.90;;;;;;5000858;28;19925;-88
2024/01/15 01:41:02;;;;;;;;;;;1.90;99.90;;;;;;5016663;28;19975;-88
2024/01/15 01:43:28;;;;;;;;;;;2.00;99.90;;;;;;5013358;28;19921;-88
2024/01/15 01:45:55;;;;;;;;;;;2.10;99.90;;;;;;5013379;28;19929;-88
2024/01/15 01:48:21;;;;;;;;;;;1.90;99.90;;;;;;5015955;28;19943;-87
2024/01/15 01:50:46;;;;;;;;;;;3.20;99.90;;;;;;5016568;28;19925;-87
2024/01/15 01:53:12;;;;;;;;;;;1.90;99.90;;;;;;5030211;28;20408;-87
2024/01/15 01:55:38;;;;;;;;;;;2.00;99.90;;;;;;5015544;28;20440;-87
2024/01/15 01:58:03;;;;;;;;;;;3.90;99.90;;;;;;4999233;28;19928;-88
2024/01/15 02:00:30;;;;;;;;;;;1.90;99.90;;;;;;4999608;28;19921;-87
2024/01/15 02:02:55;;;;;;;;;;;1.80;99.90;;;;;;5028733;28;19922;-87
2024/01/15 02:05:22;;;;;;;;;;;3.00;99.90;;;;;;5030921;28;20388;-87
2024/01/15 02:07:47;;;;;;;;;;;1.70;99.90;;;;;;5016071;28;19928;-87
2024/01/15 02:10:13;;;;;;;;;;;1.70;99.90;;;;;;5032776;28;19922;-87
2024/01/15 02:12:39;;;;;;;;;;;1.60;99.90;;;;;;5025335;28;19927;-87
2024/01/15 02:15:05;;;;;;;;;;;1.90;99.90;;;;;;5000375;28;20505;-88
2024/01/15 02:17:30;;;;;;;;;;;-0.10;99.90;;;;;;5015548;28;19921;-87
2024/01/15 02:19:56;;;;;;;;;;;1.60;99.90;;;;;;5016847;28;19925;-87
2024/01/15 02:22:21;;;;;;;;;;;2.90;99.90;;;;;;4999834;28;19986;-87
2024/01/15 02:24:47;;;;;;;;;;;2.60;99.90;;;;;;5015567;28;20004;-87
2024/01/15 02:27:13;;;;;;;;;;;3.50;99.90;;;;;;5014794;28;19928;-87
2024/01/15 02:29:39;;;;;;;;;;;3.00;99.90;;;;;;5000680;28;19925;-87
2024/01/15 02:32:05;;;;;;;;;;;1.70;99.90;;;;;;5007208;28;20438;-87
2024/01/15 02:34:32;;;;;;;;;;;1.60;99.90;;;;;;5006386;28;19927;-87
2024/01/15 02:36:57;;;;;;;;;;;1.60;99.90;;;;;;5008851;28;19921;-87
2024/01/15 02:39:23;;;;;;;;;;;1.60;99.90;;;;;;5014426;28;19925;-87
2024/01/15 02:41:48;;;;;;;;;;;3.40;99.90;;;;;;5031318;28;19997;-87
2024/01/15 02:44:14;;;;;;;;;;;2.50;99.90;;;;;;5014982;28;19987;-87
2024/01/15 02:46:39;;;;;;;;;;;1.50;99.90;;;;;;5029640;28;19921;-86
2024/01/15 02:49:05;;;;;;;;;;;1.80;99.90;;;;;;5008457;28;19928;-87
2024/01/15 02:51:30;;;;;;;;;;;2.30;99.90;;;;;;5031405;28;20460;-85
2024/01/15 02:53:56;;;;;;;;;;;1.30;99.90;;;;;;5012259;28;19921;-87
2024/01/15 02:56:22;;;;;;;;;;;1.40;99.90;;;;;;5022174;28;19930;-87
2024/01/15 02:58:47;;;;;;;;;;;3.10;99.90;;;;;;5030950;28;19921;-87
2024/01/15 03:01:13;;;;;;;;;;;1.90;99.90;;;;;;4996902;28;19964;-88
2024/01/15 03:03:39;;;;;;;;;;;3.40;99.90;;;;;;5029928;28;19925;-87
2024/01/15 03:06:05;;;;;;;;;;;2.30;99.90;;;;;;4998688;28;19929;-87
2024/01/15 03:08:31;;;;;;;;;;;1.40;99.90;;;;;;5014954;28;20377;-87
2024/01/15 03:10:56;;;;;;;;;;;1.40;99.90;;;;;;5014273;28;19968;-87
2024/01/15 03:13:22;;;;;;;;;;;1.40;99.90;;;;;;4998607;28;19921;-88
2024/01/15 03:15:47;;;;;;;;;;;1.00;99.90;;;;;;5015561;28;20369;-87
2024/01/15 03:18:13;;;;;;;;;;;2.30;99.90;;;;;;4997825;28;19960;-87
2024/01/15 03:20:39;;;;;;;;;;;1.60;99.90;;;;;;5029558;28;19917;-87
2024/01/15 03:23:04;;;;;;;;;;;3.30;99.90;;;;;;5013379;28;20277;-87
2024/01/15 03:25:30;;;;;;;;;;;2.70;99.90;;;;;;5012885;28;19933;-87
2024/01/15 03:27:55;;;;;;;;;;;2.70;99.90;;;;;;5025114;28;20274;-87
2024/01/15 03:30:21;;;;;;;;;;;3.10;99.90;;;;;;5013264;28;19921;-87
2024/01/15 03:32:47;;;;;;;;;;;1.50;99.90;;;;;;5011826;28;19928;-88
2024/01/15 03:35:14;;;;;;;;;;;1.50;99.90;;;;;;4996329;28;23161;-88
2024/01/15 03:37:40;;;;;;;;;;;1.60;99.90;;;;;;4998313;28;19925;-86
2024/01/15 03:40:06;;;;;;;;;;;1.60;99.90;;;;;;5013369;28;19928;-86
2024/01/15 03:42:32;;;;;;;;;;;1.70;99.90;;;;;;5014234;28;19968;-86
2024/01/15 03:44:57;;;;;;;;;;;1.70;99.90;;;;;;5014091;28;20340;-85
2024/01/15 03:47:23;;;;;;;;;;;2.40;99.90;;;;;;5013658;28;19927;-87
2024/01/15 03:49:48;;;;;;;;;;;3.40;99.90;;;;;;5012497;28;19929;-87
2024/01/15 03:52:14;;;;;;;;;;;1.70;99.90;;;;;;5017756;28;20023;-87
2024/01/15 03:54:39;;;;;;;;;;;1.60;99.90;;;;;;4994015;28;19929;-87
2024/01/15 03:57:05;;;;;;;;;;;3.30;99.90;;;;;;5010598;28;19925;-87
2024/01/15 03:59:30;;;;;;;;;;;2.40;99.90;;;;;;5013327;28;20008;-88
2024/01/15 04:01:56;;;;;;;;;;;1.50;99.90;;;;;;4996792;28;19921;-88
2024/01/15 04:04:22;;;;;;;;;;;0.20;99.90;;;;;;5023446;28;20040;-88
2024/01/15 04:06:47;;;;;;;;;;;1.40;99.90;;;;;;5028724;28;19922;-88
2024/01/15 04:09:13;;;;;;;;;;;1.40;99.90;;;;;;5027915;28;19925;-87
2024/01/15 04:11:39;;;;;;;;;;;3.00;99.90;;;;;;4999369;28;19929;-85
2024/01/15 04:14:05;;;;;;;;;;;3.20;99.90;;;;;;5000374;28;19932;-88
2024/01/15 04:16:30;;;;;;;;;;;2.10;99.90;;;;;;5014649;28;19921;-88
2024/01/15 04:18:56;;;;;;;;;;;2.90;99.90;;;;;;5030258;28;19928;-88
2024/01/15 04:21:22;;;;;;;;;;;2.40;99.90;;;;;;5008839;28;19925;-89
2024/01/15 04:23:47;;;;;;;;;;;2.50;99.90;;;;;;5008133;28;19925;-88
2024/01/15 04:26:13;;;;;;;;;;;2.30;99.90;;;;;;4998377;28;19921;-89
2024/01/15 04:28:38;;;;;;;;;;;1.80;99.90;;;;;;5001046;28;19925;-89
2024/01/15 04:31:04;;;;;;;;;;;1.90;99.90;;;;;;5001382;28;19925;-88
2024/01/15 04:33:30;;;;;;;;;;;1.90;99.90;;;;;;5000302;28;19921;-89
2024/01/15 04:35:55;;;;;;;;;;;2.80;99.90;;;;;;5015017;28;20401;-89
2024/01/15 04:38:21;;;;;;;;;;;3.00;99.90;;;;;;5009119;28;19960;-87
2024/01/15 04:40:46;;;;;;;;;;;2.60;99.90;;;;;;5008080;28;19926;-88
2024/01/15 04:43:12;;;;;;;;;;;1.40;99.90;;;;;;5027133;28;20281;-88
2024/01/15 04:45:37;;;;;;;;;;;1.40;99.90;;;;;;5009164;28;20596;-88
2024/01/15 04:48:03;;;;;;;;;;;3.20;99.90;;;;;;4998451;28;19922;-89
2024/01/15 04:50:29;;;;;;;;;;;1.30;99.90;;;;;;5015706;28;19926;-89
2024/01/15 04:52:54;;;;;;;;;;;1.20;99.90;;;;;;4998899;28;19929;-88
2024/01/15 04:55:20;;;;;;;;;;;2.20;99.90;;;;;;4997726;28;19929;-88
2024/01/15 04:57:46;;;;;;;;;;;1.10;99.90;;;;;;5014795;28;20008;-88
2024/01/15 05:00:13;;;;;;;;;;;2.60;99.90;;;;;;5011006;28;20020;-88
2024/01/15 05:02:38;;;;;;;;;;;1.00;99.90;;;;;;5016831;28;19920;-88
2024/01/15 05:05:04;;;;;;;;;;;1.00;99.90;;;;;;4999187;28;19982;-89
2024/01/15 05:07:29;;;;;;;;;;;1.00;99.90;;;;;;5012903;28;19922;-89
2024/01/15 05:09:55;;;;;;;;;;;1.20;99.90;;;;;;5008032;28;19922;-88
2024/01/15 05:12:21;;;;;;;;;;;2.30;99.90;;;;;;4998971;28;19921;-88
2024/01/15 05:14:46;;;;;;;;;;;2.70;99.90;;;;;;5027153;28;20444;-88
2024/01/15 05:17:12;;;;;;;;;;;1.70;99.90;;;;;;5048315;28;19925;-88
2024/01/15 05:19:37;;;;;;;;;;;2.90;99.90;;;;;;5015492;28;19921;-88
2024/01/15 05:22:03;;;;;;;;;;;0.90;99.90;;;;;;5033906;28;19961;-89
2024/01/15 05:24:28;;;;;;;;;;;2.80;99.90;;;;;;5017024;28;19937;-89
2024/01/15 05:26:54;;;;;;;;;;;1.30;99.90;;;;;;4999095;28;19929;-86
2024/01/15 05:29:20;;;;;;;;;;;1.00;99.90;;;;;;5011797;28;19928;-88
2024/01/15 05:31:45;;;;;;;;;;;1.90;99.90;;;;;;5015841;28;19967;-87
2024/01/15 05:34:11;;;;;;;;;;;2.00;99.90;;;;;;5014764;28;19943;-86
2024/01/15 05:36:36;;;;;;;;;;;1.90;99.90;;;;;;5012000;28;19929;-87
2024/01/15 05:39:03;;;;;;;;;;;2.00;99.90;;;;;;5031083;28;19944;-87
2024/01/15 05:41:28;;;;;;;;;;;1.40;99.90;;;;;;5012547;28;20273;-86
2024/01/15 05:43:54;;;;;;;;;;;3.10;99.90;;;;;;5012073;28;19929;-86
2024/01/15 05:46:19;;;;;;;;;;;1.70;99.90;;;;;;5032263;28;19983;-88
2024/01/15 05:48:45;;;;;;;;;;;2.80;99.90;;;;;;5028402;28;19929;-88
2024/01/15 05:51:11;;;;;;;;;;;2.00;99.90;;;;;;4996559;28;19932;-86
2024/01/15 05:53:40;;;;;;;;;;;2.70;99.90;;;;;;4998341;28;19961;-87
2024/01/15 05:56:05;;;;;;;;;;;1.70;99.90;;;;;;5005729;28;19921;-87
2024/01/15 05:58:31;;;;;;;;;;;0.90;99.90;;;;;;5016054;28;19971;-88
2024/01/15 06:00:57;;;;;;;;;;;0.90;99.90;;;;;;5014937;28;19953;-90
2024/01/15 06:03:22;;;;;;;;;;;2.60;99.90;;;;;;4996355;28;19929;-87
2024/01/15 06:05:48;;;;;;;;;;;0.90;99.90;;;;;;5030080;28;19960;-88
2024/01/15 06:08:14;;;;;;;;;;;0.80;99.90;;;;;;4999200;28;19925;-87
2024/01/15 06:10:40;;;;;;;;;;;0.90;99.90;;;;;;5012304;28;19928;-87
2024/01/15 06:13:05;;;;;;;;;;;2.40;99.90;;;;;;5014245;28;19921;-88
2024/01/15 06:15:31;;;;;;;;;;;0.90;99.90;;;;;;5016403;28;19925;-87
2024/01/15 06:17:56;;;;;;;;;;;2.60;99.90;;;;;;5015736;28;20015;-88
2024/01/15 06:20:22;;;;;;;;;;;2.80;99.90;;;;;;5030443;28;20432;-88
2024/01/15 06:22:48;;;;;;;;;;;0.90;99.90;;;;;;5013619;28;19921;-87
2024/01/15 06:25:13;;;;;;;;;;;0.80;99.90;;;;;;5032049;28;20435;-87
2024/01/15 06:27:40;;;;;;;;;;;0.80;99.90;;;;;;5029642;28;19983;-87
2024/01/15 06:30:06;;;;;;;;;;;0.80;99.90;;;;;;4996564;28;19921;-87
2024/01/15 06:32:32;;;;;;;;;;;0.80;99.90;;;;;;4999416;28;20435;-87
2024/01/15 06:34:57;;;;;;;;;;;2.00;99.90;;;;;;5013433;28;19968;-87
2024/01/15 06:37:23;;;;;;;;;;;1.50;99.90;;;;;;5011987;28;19975;-88
2024/01/15 06:39:49;;;;;;;;;;;2.60;99.90;;;;;;5012881;28;19971;-87
2024/01/15 06:42:14;;;;;;;;;;;2.50;99.90;;;;;;5000560;28;20515;-87
2024/01/15 06:44:40;;;;;;;;;;;2.50;99.90;;;;;;5015834;28;19998;-87
2024/01/15 06:47:05;;;;;;;;;;;2.70;99.90;;;;;;5010112;28;19983;-86
2024/01/15 06:49:31;;;;;;;;;;;0.80;99.90;;;;;;4998944;28;19974;-88
2024/01/15 06:51:57;;;;;;;;;;;2.30;99.90;;;;;;4998628;28;20063;-85
2024/01/15 06:54:23;;;;;;;;;;;2.40;99.90;;;;;;5007059;28;19921;-86
2024/01/15 06:56:49;;;;;;;;;;;1.10;99.90;;;;;;5027740;28;19921;-86
2024/01/15 06:59:14;;;;;;;;;;;1.50;99.90;;;;;;5031443;28;19928;-87
2024/01/15 07:01:40;;;;;;;;;;;2.00;99.90;;;;;;4998265;28;19927;-87
2024/01/15 07:04:06;;;;;;;;;;;2.80;99.90;;;;;;4998535;28;20361;-87
2024/01/15 07:06:31;;;;;;;;;;;2.60;99.90;;;;;;4999488;28;19925;-87
2024/01/15 07:08:57;;;;;;;;;;;0.70;99.90;;;;;;5030710;28;19921;-87
2024/01/15 07:11:23;;;;;;;;;;;1.50;99.90;;;;;;5012525;28;19921;-88
2024/01/15 07:13:49;;;;;;;;;;;2.50;99.90;;;;;;5014655;28;19928;-88
2024/01/15 07:16:15;;;;;;;;;;;2.40;99.90;;;;;;5012096;28;20325;-87
2024/01/15 07:18:40;;;;;;;;;;;1.20;99.90;;;;;;4998478;28;20397;-88
2024/01/15 07:21:06;;;;;;;;;;;1.70;99.90;;;;;;5015110;28;19971;-88
2024/01/15 07:23:32;;;;;;;;;;;0.80;99.90;;;;;;5012719;28;19921;-88
2024/01/15 07:25:57;;;;;;;;;;;0.90;99.90;;;;;;5014954;28;19922;-87
2024/01/15 07:28:23;;;;;;;;;;;2.50;99.90;;;;;;4997888;28;19921;-87
2024/01/15 07:30:48;;;;;;;;;;;0.80;99.90;;;;;;5009960;28;19979;-89
2024/01/15 07:33:14;;;;;;;;;;;1.60;99.90;;;;;;5009242;28;19967;-87
2024/01/15 07:35:40;;;;;;;;;;;1.20;99.90;;;;;;5031463;28;20332;-87
2024/01/15 07:38:05;;;;;;;;;;;2.70;99.90;;;;;;4999198;28;19921;-87
2024/01/15 07:40:31;;;;;;;;;;;1.90;99.90;;;;;;5014349;28;19999;-87
2024/01/15 07:42:56;;;;;;;;;;;1.10;99.90;;;;;;5013393;28;19928;-87
2024/01/15 07:45:22;;;;;;;;;;;2.30;99.90;;;;;;5016345;28;19933;-86
2024/01/15 07:47:49;;;;;;;;;;;0.90;99.90;;;;;;5018466;28;19960;-87
2024/01/15 07:50:14;;;;;;;;;;;1.80;99.90;;;;;;5014798;28;19987;-88
2024/01/15 07:52:41;;;;;;;;;;;1.30;99.90;;;;;;4995280;28;19968;-88
2024/01/15 07:55:07;;;;;;;;;;;2.60;99.90;;;;;;4995733;28;20011;-88
2024/01/15 07:57:33;;;;;;;;;;;0.90;99.90;;;;;;5014156;28;20012;-87
2024/01/15 07:59:58;;;;;;;;;;;1.30;99.90;;;;;;5015312;28;19921;-86
2024/01/15 08:02:24;;;;;;;;;;;1.90;99.90;;;;;;5000794;28;19922;-87
2024/01/15 08:04:50;;;;;;;;;;;1.60;99.90;;;;;;5019680;28;19925;-87
2024/01/15 08:07:15;;;;;;;;;;;2.70;99.90;;;;;;5036130;28;20377;-87
2024/01/15 08:09:41;;;;;;;;;;;2.40;99.90;;;;;;4999412;28;19929;-87
2024/01/15 08:12:07;;;;;;;;;;;2.50;99.90;;;;;;5019273;28;19928;-87
2024/01/15 08:14:33;;;;;;;;;;;0.90;99.90;;;;;;5035948;28;19928;-88
2024/01/15 08:16:58;;;;;;;;;;;1.60;99.90;;;;;;5017692;28;19932;-87
2024/01/15 08:19:24;;;;;;;;;;;2.40;99.90;;;;;;5017874;28;19921;-87
2024/01/15 08:21:50;;;;;;;;;;;2.70;99.90;;;;;;5034915;28;19929;-87
2024/01/15 08:24:16;;;;;;;;;;;3.20;99.90;;;;;;5029582;28;20284;-88
2024/01/15 08:26:42;;;;;;;;;;;1.10;99.90;;;;;;5012711;28;19921;-88
2024/01/15 08:29:07;;;;;;;;;;;2.50;99.90;;;;;;5018057;28;20345;-87
2024/01/15 08:31:33;;;;;;;;;;;3.20;99.90;;;;;;4999838;28;20529;-87
2024/01/15 08:33:59;;;;;;;;;;;1.10;99.90;;;;;;5018342;28;19928;-87
2024/01/15 08:36:25;;;;;;;;;;;1.90;99.90;;;;;;5017351;28;19921;-87
2024/01/15 08:38:51;;;;;;;;;;;2.90;99.90;;;;;;5013921;28;20463;-86
2024/01/15 08:41:16;;;;;;;;;;;1.70;99.90;;;;;;5015265;28;19929;-87
2024/01/15 08:43:42;;;;;;;;;;;2.30;99.90;;;;;;5031807;28;20288;-87
2024/01/15 08:46:08;;;;;;;;;;;2.60;99.90;;;;;;5019043;28;19929;-86
2024/01/15 08:48:33;;;;;;;;;;;2.90;99.90;;;;;;5019678;28;20405;-87
2024/01/15 08:50:59;;;;;;;;;;;2.40;99.90;;;;;;5001755;28;19925;-87
2024/01/15 08:53:25;;;;;;;;;;;1.10;99.90;;;;;;5002486;28;19964;-87
2024/01/15 08:55:51;;;;;;;;;;;1.00;99.90;;;;;;5019573;28;19927;-87
2024/01/15 08:58:17;;;;;;;;;;;2.80;99.90;;;;;;5015350;28;19988;-87
2024/01/15 09:00:43;;;;;;;;;;;2.80;99.90;;;;;;5027329;28;19925;-87
2024/01/15 09:03:08;;;;;;;;;;;2.60;99.90;;;;;;5032012;28;20028;-87
2024/01/15 09:05:34;;;;;;;;;;;1.10;99.90;;;;;;5001759;28;20374;-86
2024/01/15 09:08:00;;;;;;;;;;;1.10;99.90;;;;;;5018305;28;20403;-86
2024/01/15 09:10:25;;;;;;;;;;;1.60;99.90;;;;;;5035044;28;20254;-87
2024/01/15 09:12:51;;;;;;;;;;;1.90;99.90;;;;;;5006882;28;19921;-86
2024/01/15 09:15:17;;;;;;;;;;;2.20;99.90;;;;;;5019957;28;19975;-86
2024/01/15 09:17:42;;;;;;;;;;;1.60;99.90;;;;;;5002270;28;19922;-86
2024/01/15 09:20:08;;;;;;;;;;;2.10;99.90;;;;;;5005530;28;19921;-86
2024/01/15 09:22:34;;;;;;;;;;;1.70;99.90;;;;;;5002179;28;20007;-86
2024/01/15 09:25:00;;;;;;;;;;;3.50;99.90;;;;;;5009609;28;20007;-87
2024/01/15 09:27:26;;;;;;;;;;;2.10;99.90;;;;;;5042557;28;19928;-87
2024/01/15 09:29:52;;;;;;;;;;;1.70;99.90;;;;;;5025309;28;19944;-84
2024/01/15 09:32:18;;;;;;;;;;;2.70;99.90;;;;;;5032934;28;19928;-87
2024/01/15 09:34:46;;;;;;;;;;;3.40;99.90;;;;;;5037824;28;20289;-87
2024/01/15 09:37:11;;;;;;;;;;;1.80;99.90;;;;;;5023898;28;19930;-86
2024/01/15 09:39:37;;;;;;;;;;;2.00;99.90;;;;;;5046376;28;19922;-86
2024/01/15 09:42:03;;;;;;;;;;;2.80;99.90;;;;;;5025942;28;19944;-86
2024/01/15 09:44:29;;;;;;;;;;;1.70;99.90;;;;;;5046102;28;19931;-88
2024/01/15 09:46:55;;;;;;;;;;;1.70;99.90;;;;;;5038843;28;19976;-87
2024/01/15 09:49:21;;;;;;;;;;;3.30;99.90;;;;;;5036351;28;19921;-86
2024/01/15 09:51:47;;;;;;;;;;;2.40;99.90;;;;;;5002487;28;19925;-87
2024/01/15 09:54:13;;;;;;;;;;;1.90;99.90;;;;;;5020766;28;19928;-87
2024/01/15 09:56:39;;;;;;;;;;;3.30;99.90;;;;;;5016825;28;20365;-86
2024/01/15 09:59:05;;;;;;;;;;;2.60;99.90;;;;;;5015328;28;19979;-87
2024/01/15 10:01:36;;;;;;;;;;;2.70;99.90;;;;;;5009678;28;19927;-85
2024/01/15 10:04:02;;;;;;;;;;;1.50;99.90;;;;;;5020111;28;19960;-89
2024/01/15 10:06:28;;;;;;;;;;;2.90;99.90;;;;;;5014528;28;20499;-87
2024/01/15 10:08:53;;;;;;;;;;;1.40;99.90;;;;;;5032618;28;19927;-86
2024/01/15 10:11:19;;;;;;;;;;;3.00;99.90;;;;;;5000686;28;19928;-88
2024/01/15 10:13:45;;;;;;;;;;;2.80;99.90;;;;;;5011526;28;19925;-86
2024/01/15 10:16:11;;;;;;;;;;;1.90;99.90;;;;;;5053947;28;19943;-86
2024/01/15 10:18:36;;;;;;;;;;;3.70;99.90;;;;;;5012762;28;19921;-86
2024/01/15 10:21:03;;;;;;;;;;;2.40;99.90;;;;;;4999508;28;19967;-86
2024/01/15 10:23:29;;;;;;;;;;;3.00;99.90;;;;;;5012353;28;19921;-87
2024/01/15 10:25:56;;;;;;;;;;;4.60;99.90;;;;;;5043109;28;19963;-86
2024/01/15 10:28:22;;;;;;;;;;;3.70;99.90;;;;;;5016472;28;19922;-86
2024/01/15 10:30:51;;;;;;;;;;;4.50;99.90;;;;;;5000124;28;19927;-86
2024/01/15 10:33:21;;;;;;;;;;;3.90;99.90;;;;;;5017872;28;19921;-86
2024/01/15 10:35:47;;;;;;;;;;;3.50;99.90;;;;;;5029834;28;19964;-87
2024/01/15 10:38:12;;;;;;;;;;;3.30;99.90;;;;;;5014673;28;19928;-86
2024/01/15 10:40:38;;;;;;;;;;;3.10;99.90;;;;;;5000187;28;19921;-87
2024/01/15 10:43:04;;;;;;;;;;;2.90;99.90;;;;;;4997894;28;20384;-87
2024/01/15 10:45:30;;;;;;;;;;;2.80;99.90;;;;;;5014082;28;19925;-87
2024/01/15 10:47:58;;;;;;;;;;;2.60;99.90;;;;;;5016074;28;20380;-87
2024/01/15 10:50:24;;;;;;;;;;;2.50;99.90;;;;;;5028591;28;20068;-86
2024/01/15 10:52:51;;;;;;;;;;;2.50;99.90;;;;;;4998531;28;19995;-87
2024/01/15 10:55:17;;;;;;;;;;;2.60;99.90;;;;;;5011123;28;19921;-87
2024/01/15 10:57:44;;;;;;;;;;;3.10;99.90;;;;;;4996385;28;19925;-87
2024/01/15 11:00:14;;;;;;;;;;;4.20;99.90;;;;;;5015209;28;19925;-87
2024/01/15 11:02:40;;;;;;;;;;;2.60;99.90;;;;;;5002588;28;20288;-87
2024/01/15 11:05:06;;;;;;;;;;;3.30;99.90;;;;;;5013697;28;19925;-87
2024/01/15 11:07:31;;;;;;;;;;;1.30;99.90;;;;;;5009434;28;19929;-87
2024/01/15 11:10:00;;;;;;;;;;;3.20;99.90;;;;;;5026646;28;19929;-88
2024/01/15 11:12:26;;;;;;;;;;;3.10;99.90;;;;;;5001873;28;19925;-88
2024/01/15 11:14:54;;;;;;;;;;;2.80;99.90;;;;;;5034926;28;19957;-90
2024/01/15 11:17:20;;;;;;;;;;;3.50;99.90;;;;;;5020529;28;19925;-88
2024/01/15 11:19:52;;;;;;;;;;;3.10;99.90;;;;;;5015313;28;19921;-88
2024/01/15 11:22:33;;;;;;;;;;;1.50;99.90;;;;;;5014273;28;19921;-89
2024/01/15 11:25:03;;;;;;;;;;;1.80;99.90;;;;;;5016874;28;19948;-89
2024/01/15 11:27:47;;;;;;;;;;;1.40;99.90;;;;;;5016392;28;19922;-89
2024/01/15 11:30:13;;;;;;;;;;;1.40;99.90;;;;;;5024658;28;19921;-89
2024/01/15 11:32:42;;;;;;;;;;;1.50;99.90;;;;;;5009777;28;19921;-89
2024/01/15 11:35:09;;;;;;;;;;;1.50;99.90;;;;;;5016104;28;19932;-89
2024/01/15 11:37:54;;;;;;;;;;;3.30;99.90;;;;;;5036450;28;19975;-89
2024/01/15 11:40:39;;;;;;;;;;;1.80;99.90;;;;;;5016297;28;19925;-89
2024/01/15 11:43:09;;;;;;;;;;;1.50;99.90;;;;;;5039559;28;20450;-88
2024/01/15 11:45:42;;;;;;;;;;;2.40;99.90;;;;;;5021626;28;20348;-90
2024/01/15 11:48:11;;;;;;;;;;;1.60;99.90;;;;;;5006321;28;20496;-88
2024/01/15 11:50:49;;;;;;;;;;;1.70;99.90;;;;;;5046127;28;19925;-89
2024/01/15 11:53:35;;;;;;;;;;;1.80;99.90;;;;;;5020653;28;19929;-89
2024/01/15 11:56:01;;;;;;;;;;;2.00;99.90;;;;;;5031891;28;19990;-86
2024/01/15 11:58:27;;;;;;;;;;;2.70;99.90;;;;;;5016236;28;19929;-89
2024/01/15 12:00:54;;;;;;;;;;;4.60;99.90;;;;;;5033255;28;20387;-88
2024/01/15 12:03:20;;;;;;;;;;;4.40;99.90;;;;;;4996044;28;19921;-88
2024/01/15 12:05:46;;;;;;;;;;;4.20;99.90;;;;;;5033072;28;19934;-87
2024/01/15 12:08:11;;;;;;;;;;;3.90;99.90;;;;;;5000452;28;19936;-88
2024/01/15 12:10:38;;;;;;;;;;;5.10;99.90;;;;;;5003312;28;19929;-88
2024/01/15 12:13:04;;;;;;;;;;;4.80;99.90;;;;;;5053409;28;19925;-88
2024/01/15 12:16:03;;;;;;;;;;;3.80;99.90;;;;;;5034378;28;19921;-95
2024/01/15 12:18:29;;;;;;;;;;;3.80;99.90;;;;;;5053487;28;20409;-91
2024/01/15 12:20:55;;;;;;;;;;;3.70;99.90;;;;;;5006322;28;19968;-89
2024/01/15 12:23:20;;;;;;;;;;;3.60;99.90;;;;;;5015445;28;19921;-91
2024/01/15 12:25:47;;;;;;;;;;;2.70;99.90;;;;;;5013142;28;19925;-88
2024/01/15 12:28:12;;;;;;;;;;;3.60;99.90;;;;;;5001121;28;19921;-89
2024/01/15 12:30:38;;;;;;;;;;;2.80;99.90;;;;;;5032270;28;19921;-89
2024/01/15 12:33:04;;;;;;;;;;;2.60;99.90;;;;;;5014592;28;19968;-89
2024/01/15 12:35:30;;;;;;;;;;;2.50;99.90;;;;;;5020321;28;19929;-90
2024/01/15 12:37:56;;;;;;;;;;;2.70;99.90;;;;;;5018703;28;19928;-89
2024/01/15 12:40:22;;;;;;;;;;;3.60;99.90;;;;;;5015726;28;19929;-91
2024/01/15 12:42:48;;;;;;;;;;;2.60;99.90;;;;;;5013090;28;19921;-91
2024/01/15 12:45:14;;;;;;;;;;;3.10;99.90;;;;;;5012668;28;19936;-90
2024/01/15 12:47:40;;;;;;;;;;;4.10;99.90;;;;;;4998857;28;19929;-89
2024/01/15 12:50:06;;;;;;;;;;;3.00;99.90;;;;;;5011267;28;19948;-90
2024/01/15 12:52:32;;;;;;;;;;;2.50;99.90;;;;;;5017370;28;19972;-89
2024/01/15 12:54:58;;;;;;;;;;;3.50;99.90;;;;;;5016078;28;20404;-90
2024/01/15 12:57:23;;;;;;;;;;;3.90;99.90;;;;;;5027881;28;19952;-90
2024/01/15 12:59:49;;;;;;;;;;;3.20;99.90;;;;;;5034477;28;20009;-89
2024/01/15 13:02:16;;;;;;;;;;;4.30;99.90;;;;;;5010798;28;19928;-88
2024/01/15 13:04:42;;;;;;;;;;;2.90;99.90;;;;;;5033092;28;19971;-88
2024/01/15 13:07:08;;;;;;;;;;;4.10;99.90;;;;;;5000519;28;19925;-88
2024/01/15 13:09:34;;;;;;;;;;;4.40;99.90;;;;;;5033010;28;19925;-89
2024/01/15 13:12:01;;;;;;;;;;;3.60;99.90;;;;;;5017309;28;19967;-89
2024/01/15 13:14:27;;;;;;;;;;;2.50;99.90;;;;;;4996993;28;20258;-89
2024/01/15 13:16:53;;;;;;;;;;;2.60;99.90;;;;;;5015488;28;19943;-88
2024/01/15 13:19:19;;;;;;;;;;;3.80;99.90;;;;;;5031734;28;20274;-89
2024/01/15 13:21:45;;;;;;;;;;;3.80;99.90;;;;;;5015528;28;19928;-89
2024/01/15 13:24:11;;;;;;;;;;;2.90;99.90;;;;;;5016380;28;20012;-89
2024/01/15 13:26:36;;;;;;;;;;;3.10;99.90;;;;;;4999450;28;19928;-88
2024/01/15 13:29:03;;;;;;;;;;;3.30;99.90;;;;;;5028629;28;19940;-88
2024/01/15 13:31:29;;;;;;;;;;;3.60;99.90;;;;;;5015598;28;19921;-88
2024/01/15 13:33:55;;;;;;;;;;;3.60;99.90;;;;;;5030991;28;19928;-88
2024/01/15 13:36:23;;;;;;;;;;;5.20;99.90;;;;;;5029407;28;19921;-87
2024/01/15 13:38:49;;;;;;;;;;;5.00;99.90;;;;;;5014633;28;20310;-89
2024/01/15 13:41:15;;;;;;;;;;;4.10;99.90;;;;;;5013719;28;19921;-88
2024/01/15 13:43:40;;;;;;;;;;;4.50;99.90;;;;;;5014766;28;19927;-88
2024/01/15 13:46:06;;;;;;;;;;;4.10;99.90;;;;;;5014578;28;20008;-89
2024/01/15 13:48:32;;;;;;;;;;;4.30;99.90;;;;;;5029743;28;19979;-88
2024/01/15 13:50:59;;;;;;;;;;;5.20;99.90;;;;;;5010867;28;19933;-89
2024/01/15 13:53:25;;;;;;;;;;;4.40;99.90;;;;;;5014287;28;19925;-88
2024/01/15 13:55:51;;;;;;;;;;;4.50;99.90;;;;;;5010567;28;19978;-88
2024/01/15 13:58:18;;;;;;;;;;;4.60;99.90;;;;;;5012290;28;19925;-88
2024/01/15 14:00:44;;;;;;;;;;;4.90;99.90;;;;;;5000022;28;19921;-88
2024/01/15 14:03:09;;;;;;;;;;;5.30;99.90;;;;;;5013243;28;19917;-88
2024/01/15 14:05:36;;;;;;;;;;;6.70;99.90;;;;;;5014253;28;20399;-88
2024/01/15 14:08:03;;;;;;;;;;;6.20;99.90;;;;;;5032299;28;19933;-89
2024/01/15 14:10:28;;;;;;;;;;;6.60;99.90;;;;;;5024708;28;19921;-88
2024/01/15 14:12:54;;;;;;;;;;;6.90;99.90;;;;;;5011193;28;20296;-89
2024/01/15 14:15:21;;;;;;;;;;;6.80;99.90;;;;;;4998469;28;19980;-88
2024/01/15 14:17:47;;;;;;;;;;;7.10;99.90;;;;;;5031655;28;19921;-88
2024/01/15 14:20:12;;;;;;;;;;;6.70;99.90;;;;;;4999206;28;20262;-88
2024/01/15 14:22:38;;;;;;;;;;;6.60;99.90;;;;;;5014974;28;20281;-88
2024/01/15 14:25:04;;;;;;;;;;;6.80;99.90;;;;;;5014844;28;20297;-88